Terminal Aerodrome Forecast
Issued by NWS El Paso, TX

Home | Current Version | Previous Version | Text Only | Print | Product List | Glossary On
Versions: 1 2 3 4 5 6 7 8 9 10 11 12 13 14 15 16 17
000
FTUS44 KEPZ 220500
TAFELP
TAF
KELP 220526Z 2206/2306 20010KT P6SM -SHRA BKN070 BKN120
      TEMPO 2207/2211 6SM -TSRA SCT060CB
     FM221100 20011KT P6SM VCSH FEW015 BKN040 OVC070
      TEMPO 2211/2214 6SM -SHRA
     FM221700 22006KT P6SM VCSH SCT040 BKN070 OVC110
     FM222300 19008KT P6SM SCT050 SCT080 OVC120
     FM230300 16006KT P6SM FEW050 SCT080 BKN110=

USA.gov is the U.S. government's official web portal to all federal, state and local government web resources and services.